sensor_id;sensor_type;location;lat;lon;timestamp;temperature;humidity
210;DHT22;90;48.810;9.120;2023-12-20T00:01:28;6.30;90.70
210;DHT22;90;48.810;9.120;2023-12-20T00:03:55;6.30;90.70
210;DHT22;90;48.810;9.120;2023-12-20T00:06:22;6.30;90.90
210;DHT22;90;48.810;9.120;2023-12-20T00:08:49;6.40;90.80
210;DHT22;90;48.810;9.120;2023-12-20T00:11:17;6.30;91.10
210;DHT22;90;48.810;9.120;2023-12-20T00:13:44;6.30;91.70
210;DHT22;90;48.810;9.120;2023-12-20T00:16:11;6.30;92.00
210;DHT22;90;48.810;9.120;2023-12-20T00:18:38;6.30;92.10
210;DHT22;90;48.810;9.120;2023-12-20T00:21:05;6.30;92.10
210;DHT22;90;48.810;9.120;2023-12-20T00:23:32;6.30;92.40
210;DHT22;90;48.810;9.120;2023-12-20T00:25:59;6.30;93.00
210;DHT22;90;48.810;9.120;2023-12-20T00:28:28;6.30;93.10
210;DHT22;90;48.810;9.120;2023-12-20T00:30:55;6.30;93.50
210;DHT22;90;48.810;9.120;2023-12-20T00:33:22;6.30;93.60
210;DHT22;90;48.810;9.120;2023-12-20T00:35:49;6.30;93.30
210;DHT22;90;48.810;9.120;2023-12-20T00:38:16;6.30;93.80
210;DHT22;90;48.810;9.120;2023-12-20T00:40:42;6.20;94.70
210;DHT22;90;48.810;9.120;2023-12-20T00:43:09;6.30;94.50
210;DHT22;90;48.810;9.120;2023-12-20T00:45:37;6.30;94.40
210;DHT22;90;48.810;9.120;2023-12-20T00:48:05;6.40;94.20
210;DHT22;90;48.810;9.120;2023-12-20T00:50:32;6.30;94.30
210;DHT22;90;48.810;9.120;2023-12-20T00:52:59;6.30;94.70
210;DHT22;90;48.810;9.120;2023-12-20T00:55:25;6.30;95.20
210;DHT22;90;48.810;9.120;2023-12-20T00:57:52;6.30;95.40
210;DHT22;90;48.810;9.120;2023-12-20T01:00:20;6.20;95.90
210;DHT22;90;48.810;9.120;2023-12-20T01:02:48;6.30;96.20
210;DHT22;90;48.810;9.120;2023-12-20T01:05:17;6.30;96.10
210;DHT22;90;48.810;9.120;2023-12-20T01:07:44;6.30;96.10
210;DHT22;90;48.810;9.120;2023-12-20T01:10:11;6.30;96.20
210;DHT22;90;48.810;9.120;2023-12-20T01:12:40;6.20;96.70
210;DHT22;90;48.810;9.120;2023-12-20T01:15:07;6.20;96.80
210;DHT22;90;48.810;9.120;2023-12-20T01:17:34;6.10;96.80
210;DHT22;90;48.810;9.120;2023-12-20T01:20:03;6.00;96.80
210;DHT22;90;48.810;9.120;2023-12-20T01:22:30;6.10;96.80
210;DHT22;90;48.810;9.120;2023-12-20T01:24:57;6.10;96.80
210;DHT22;90;48.810;9.120;2023-12-20T01:27:24;6.00;96.80
210;DHT22;90;48.810;9.120;2023-12-20T01:29:51;6.00;96.80
210;DHT22;90;48.810;9.120;2023-12-20T01:32:17;6.00;96.80
210;DHT22;90;48.810;9.120;2023-12-20T01:34:44;6.00;96.80
210;DHT22;90;48.810;9.120;2023-12-20T01:37:13;6.00;96.80
210;DHT22;90;48.810;9.120;2023-12-20T01:39:40;6.00;96.80
210;DHT22;90;48.810;9.120;2023-12-20T01:42:07;6.00;96.80
210;DHT22;90;48.810;9.120;2023-12-20T01:44:33;6.00;96.80
210;DHT22;90;48.810;9.120;2023-12-20T01:47:00;6.00;96.80
210;DHT22;90;48.810;9.120;2023-12-20T01:49:28;6.00;96.80
210;DHT22;90;48.810;9.120;2023-12-20T01:51:55;6.00;96.80
210;DHT22;90;48.810;9.120;2023-12-20T01:54:24;6.00;96.80
210;DHT22;90;48.810;9.120;2023-12-20T01:56:51;6.00;96.80
210;DHT22;90;48.810;9.120;2023-12-20T01:59:19;6.00;96.80
210;DHT22;90;48.810;9.120;2023-12-20T02:01:47;6.00;96.80
210;DHT22;90;48.810;9.120;2023-12-20T02:04:14;5.90;96.80
210;DHT22;90;48.810;9.120;2023-12-20T02:06:42;5.90;96.80
210;DHT22;90;48.810;9.120;2023-12-20T02:09:10;5.90;96.80
210;DHT22;90;48.810;9.120;2023-12-20T02:11:38;5.90;96.80
210;DHT22;90;48.810;9.120;2023-12-20T02:14:05;5.90;96.80
210;DHT22;90;48.810;9.120;2023-12-20T02:16:32;5.90;96.80
210;DHT22;90;48.810;9.120;2023-12-20T02:18:59;5.90;96.80
210;DHT22;90;48.810;9.120;2023-12-20T02:21:32;5.80;96.80
210;DHT22;90;48.810;9.120;2023-12-20T02:23:59;5.90;96.80
210;DHT22;90;48.810;9.120;2023-12-20T02:26:26;5.80;96.80
210;DHT22;90;48.810;9.120;2023-12-20T02:28:53;5.80;96.80
210;DHT22;90;48.810;9.120;2023-12-20T02:31:21;5.80;96.80
210;DHT22;90;48.810;9.120;2023-12-20T02:33:48;5.80;96.80
210;DHT22;90;48.810;9.120;2023-12-20T02:36:15;5.80;96.80
210;DHT22;90;48.810;9.120;2023-12-20T02:38:43;5.80;96.80
210;DHT22;90;48.810;9.120;2023-12-20T02:41:10;5.80;96.80
210;DHT22;90;48.810;9.120;2023-12-20T02:43:37;5.80;96.80
210;DHT22;90;48.810;9.120;2023-12-20T02:46:04;5.90;96.80
210;DHT22;90;48.810;9.120;2023-12-20T02:48:31;5.80;96.80
210;DHT22;90;48.810;9.120;2023-12-20T02:50:57;5.90;96.80
210;DHT22;90;48.810;9.120;2023-12-20T02:53:24;5.90;96.80
210;DHT22;90;48.810;9.120;2023-12-20T02:55:52;6.00;96.80
210;DHT22;90;48.810;9.120;2023-12-20T02:58:19;5.90;96.80
210;DHT22;90;48.810;9.120;2023-12-20T03:00:46;6.00;96.80
210;DHT22;90;48.810;9.120;2023-12-20T03:03:13;6.00;96.80
210;DHT22;90;48.810;9.120;2023-12-20T03:05:40;6.00;96.80
210;DHT22;90;48.810;9.120;2023-12-20T03:08:06;6.00;96.80
210;DHT22;90;48.810;9.120;2023-12-20T03:10:33;6.00;96.80
210;DHT22;90;48.810;9.120;2023-12-20T03:13:01;6.10;96.80
210;DHT22;90;48.810;9.120;2023-12-20T03:15:28;6.10;96.80
210;DHT22;90;48.810;9.120;2023-12-20T03:17:55;6.10;96.80
210;DHT22;90;48.810;9.120;2023-12-20T03:20:24;6.10;96.80
210;DHT22;90;48.810;9.120;2023-12-20T03:22:51;6.10;96.80
210;DHT22;90;48.810;9.120;2023-12-20T03:25:18;6.00;96.80
210;DHT22;90;48.810;9.120;2023-12-20T03:27:45;6.00;96.80
210;DHT22;90;48.810;9.120;2023-12-20T03:30:15;5.90;96.80
210;DHT22;90;48.810;9.120;2023-12-20T03:32:42;5.90;96.80
210;DHT22;90;48.810;9.120;2023-12-20T03:35:09;5.90;96.80
210;DHT22;90;48.810;9.120;2023-12-20T03:37:36;5.90;96.80
210;DHT22;90;48.810;9.120;2023-12-20T03:40:03;5.80;96.80
210;DHT22;90;48.810;9.120;2023-12-20T03:42:30;5.80;96.80
210;DHT22;90;48.810;9.120;2023-12-20T03:44:57;5.80;96.80
210;DHT22;90;48.810;9.120;2023-12-20T03:47:25;5.80;96.80
210;DHT22;90;48.810;9.120;2023-12-20T03:49:53;5.70;96.80
210;DHT22;90;48.810;9.120;2023-12-20T03:52:20;5.70;96.80
210;DHT22;90;48.810;9.120;2023-12-20T03:54:47;5.70;96.80
210;DHT22;90;48.810;9.120;2023-12-20T03:57:13;5.70;96.80
210;DHT22;90;48.810;9.120;2023-12-20T03:59:41;5.70;96.80
210;DHT22;90;48.810;9.120;2023-12-20T04:02:08;5.70;96.80
210;DHT22;90;48.810;9.120;2023-12-20T04:04:36;5.70;96.80
210;DHT22;90;48.810;9.120;2023-12-20T04:07:03;5.60;96.80
210;DHT22;90;48.810;9.120;2023-12-20T04:09:30;5.60;96.80
210;DHT22;90;48.810;9.120;2023-12-20T04:11:57;5.60;96.80
210;DHT22;90;48.810;9.120;2023-12-20T04:14:23;5.60;96.80
210;DHT22;90;48.810;9.120;2023-12-20T04:16:51;5.60;96.80
210;DHT22;90;48.810;9.120;2023-12-20T04:19:18;5.60;96.80
210;DHT22;90;48.810;9.120;2023-12-20T04:21:46;5.60;96.80
210;DHT22;90;48.810;9.120;2023-12-20T04:24:13;5.60;96.80
210;DHT22;90;48.810;9.120;2023-12-20T04:26:40;5.60;96.80
210;DHT22;90;48.810;9.120;2023-12-20T04:29:08;5.60;96.80
210;DHT22;90;48.810;9.120;2023-12-20T04:31:35;5.60;96.80
210;DHT22;90;48.810;9.120;2023-12-20T04:34:02;5.60;96.80
210;DHT22;90;48.810;9.120;2023-12-20T04:36:29;5.60;96.80
210;DHT22;90;48.810;9.120;2023-12-20T04:38:57;5.60;96.80
210;DHT22;90;48.810;9.120;2023-12-20T04:41:25;5.60;96.80
210;DHT22;90;48.810;9.120;2023-12-20T04:43:53;5.60;96.80
210;DHT22;90;48.810;9.120;2023-12-20T04:46:20;5.60;96.80
210;DHT22;90;48.810;9.120;2023-12-20T04:48:47;5.60;96.80
210;DHT22;90;48.810;9.120;2023-12-20T04:51:13;5.60;96.80
210;DHT22;90;48.810;9.120;2023-12-20T04:53:42;5.60;96.80
210;DHT22;90;48.810;9.120;2023-12-20T04:56:10;5.60;96.80
210;DHT22;90;48.810;9.120;2023-12-20T04:58:37;5.70;96.80
210;DHT22;90;48.810;9.120;2023-12-20T05:01:05;5.70;96.80
210;DHT22;90;48.810;9.120;2023-12-20T05:03:32;5.70;96.80
210;DHT22;90;48.810;9.120;2023-12-20T05:05:59;5.70;96.80
210;DHT22;90;48.810;9.120;2023-12-20T05:08:26;5.70;96.80
210;DHT22;90;48.810;9.120;2023-12-20T05:10:54;5.60;96.80
210;DHT22;90;48.810;9.120;2023-12-20T05:13:22;5.60;96.80
210;DHT22;90;48.810;9.120;2023-12-20T05:15:52;5.60;96.80
210;DHT22;90;48.810;9.120;2023-12-20T05:18:20;5.60;96.80
210;DHT22;90;48.810;9.120;2023-12-20T05:20:47;5.60;96.80
210;DHT22;90;48.810;9.120;2023-12-20T05:23:14;5.60;96.80
210;DHT22;90;48.810;9.120;2023-12-20T05:25:44;5.60;96.80
210;DHT22;90;48.810;9.120;2023-12-20T05:28:11;5.60;96.80
210;DHT22;90;48.810;9.120;2023-12-20T05:30:39;5.60;96.80
210;DHT22;90;48.810;9.120;2023-12-20T05:33:06;5.60;96.80
210;DHT22;90;48.810;9.120;2023-12-20T05:35:33;5.60;96.80
210;DHT22;90;48.810;9.120;2023-12-20T05:38:00;5.60;96.80
210;DHT22;90;48.810;9.120;2023-12-20T05:40:27;5.60;96.80
210;DHT22;90;48.810;9.120;2023-12-20T05:42:54;5.60;96.80
210;DHT22;90;48.810;9.120;2023-12-20T05:45:23;5.70;96.80
210;DHT22;90;48.810;9.120;2023-12-20T05:47:51;5.60;96.80
210;DHT22;90;48.810;9.120;2023-12-20T05:50:24;5.70;96.80
210;DHT22;90;48.810;9.120;2023-12-20T05:52:51;5.60;96.80
210;DHT22;90;48.810;9.120;2023-12-20T05:55:18;5.60;96.80
210;DHT22;90;48.810;9.120;2023-12-20T05:57:45;5.60;96.80
210;DHT22;90;48.810;9.120;2023-12-20T06:00:13;5.70;96.80
210;DHT22;90;48.810;9.120;2023-12-20T06:02:41;5.70;96.80
210;DHT22;90;48.810;9.120;2023-12-20T06:05:09;5.70;96.80
210;DHT22;90;48.810;9.120;2023-12-20T06:07:36;5.60;96.80
210;DHT22;90;48.810;9.120;2023-12-20T06:10:03;5.70;96.80
210;DHT22;90;48.810;9.120;2023-12-20T06:12:31;5.60;96.80
210;DHT22;90;48.810;9.120;2023-12-20T06:15:03;5.60;96.80
210;DHT22;90;48.810;9.120;2023-12-20T06:17:31;5.70;96.80
210;DHT22;90;48.810;9.120;2023-12-20T06:19:58;5.70;96.80
210;DHT22;90;48.810;9.120;2023-12-20T06:22:26;5.70;96.80
210;DHT22;90;48.810;9.120;2023-12-20T06:24:53;5.70;96.80
210;DHT22;90;48.810;9.120;2023-12-20T06:27:20;5.70;96.80
210;DHT22;90;48.810;9.120;2023-12-20T06:29:47;5.70;96.80
210;DHT22;90;48.810;9.120;2023-12-20T06:32:14;5.70;96.80
210;DHT22;90;48.810;9.120;2023-12-20T06:34:41;5.80;96.80
210;DHT22;90;48.810;9.120;2023-12-20T06:37:08;5.70;96.80
210;DHT22;90;48.810;9.120;2023-12-20T06:39:36;5.70;96.80
210;DHT22;90;48.810;9.120;2023-12-20T06:42:03;5.70;96.80
210;DHT22;90;48.810;9.120;2023-12-20T06:44:30;5.70;96.80
210;DHT22;90;48.810;9.120;2023-12-20T06:46:57;5.80;96.80
210;DHT22;90;48.810;9.120;2023-12-20T06:49:24;5.70;96.80
210;DHT22;90;48.810;9.120;2023-12-20T06:51:51;5.80;96.80
210;DHT22;90;48.810;9.120;2023-12-20T06:54:18;5.90;96.80
210;DHT22;90;48.810;9.120;2023-12-20T06:56:47;5.90;96.80
210;DHT22;90;48.810;9.120;2023-12-20T06:59:14;5.90;96.80
210;DHT22;90;48.810;9.120;2023-12-20T07:01:41;5.90;96.80
210;DHT22;90;48.810;9.120;2023-12-20T07:04:09;5.80;96.80
210;DHT22;90;48.810;9.120;2023-12-20T07:06:36;5.80;96.80
210;DHT22;90;48.810;9.120;2023-12-20T07:09:03;5.80;96.80
210;DHT22;90;48.810;9.120;2023-12-20T07:11:30;5.80;96.80
210;DHT22;90;48.810;9.120;2023-12-20T07:13:59;5.80;96.80
210;DHT22;90;48.810;9.120;2023-12-20T07:16:29;5.80;96.80
210;DHT22;90;48.810;9.120;2023-12-20T07:18:58;5.80;96.80
210;DHT22;90;48.810;9.120;2023-12-20T07:21:25;5.70;96.80
210;DHT22;90;48.810;9.120;2023-12-20T07:23:52;5.80;96.80
210;DHT22;90;48.810;9.120;2023-12-20T07:26:19;5.80;96.80
210;DHT22;90;48.810;9.120;2023-12-20T07:28:46;5.70;96.80
210;DHT22;90;48.810;9.120;2023-12-20T07:31:15;5.70;96.80
210;DHT22;90;48.810;9.120;2023-12-20T07:33:42;5.60;96.80
210;DHT22;90;48.810;9.120;2023-12-20T07:36:09;5.70;96.80
210;DHT22;90;48.810;9.120;2023-12-20T07:38:37;5.70;96.80
210;DHT22;90;48.810;9.120;2023-12-20T07:41:04;5.70;96.80
210;DHT22;90;48.810;9.120;2023-12-20T07:43:31;5.70;96.80
210;DHT22;90;48.810;9.120;2023-12-20T07:46:01;5.60;96.80
210;DHT22;90;48.810;9.120;2023-12-20T07:48:31;5.60;96.80
210;DHT22;90;48.810;9.120;2023-12-20T07:50:58;5.60;96.80
210;DHT22;90;48.810;9.120;2023-12-20T07:53:25;5.60;96.80
210;DHT22;90;48.810;9.120;2023-12-20T07:55:52;5.60;96.80
210;DHT22;90;48.810;9.120;2023-12-20T07:58:23;5.50;96.80
210;DHT22;90;48.810;9.120;2023-12-20T08:00:50;5.50;96.70
210;DHT22;90;48.810;9.120;2023-12-20T08:03:17;5.50;96.70
210;DHT22;90;48.810;9.120;2023-12-20T08:05:45;5.50;96.60
210;DHT22;90;48.810;9.120;2023-12-20T08:08:12;5.50;96.30
210;DHT22;90;48.810;9.120;2023-12-20T08:10:39;5.40;95.40
210;DHT22;90;48.810;9.120;2023-12-20T08:13:06;5.40;95.40
210;DHT22;90;48.810;9.120;2023-12-20T08:15:34;5.40;95.40
210;DHT22;90;48.810;9.120;2023-12-20T08:18:01;5.40;95.50
210;DHT22;90;48.810;9.120;2023-12-20T08:20:28;5.40;95.30
210;DHT22;90;48.810;9.120;2023-12-20T08:22:56;5.40;95.40
210;DHT22;90;48.810;9.120;2023-12-20T08:25:23;5.60;94.00
210;DHT22;90;48.810;9.120;2023-12-20T08:27:50;5.60;94.00
210;DHT22;90;48.810;9.120;2023-12-20T08:30:17;5.50;94.00
210;DHT22;90;48.810;9.120;2023-12-20T08:32:47;5.50;93.40
210;DHT22;90;48.810;9.120;2023-12-20T08:35:14;5.40;94.00
210;DHT22;90;48.810;9.120;2023-12-20T08:37:41;5.50;93.10
210;DHT22;90;48.810;9.120;2023-12-20T08:40:12;5.40;92.90
210;DHT22;90;48.810;9.120;2023-12-20T08:42:39;5.30;93.20
210;DHT22;90;48.810;9.120;2023-12-20T08:45:07;5.30;93.20
210;DHT22;90;48.810;9.120;2023-12-20T08:47:34;5.50;94.90
210;DHT22;90;48.810;9.120;2023-12-20T08:50:01;5.80;95.00
210;DHT22;90;48.810;9.120;2023-12-20T08:52:27;5.70;92.10
210;DHT22;90;48.810;9.120;2023-12-20T08:54:54;5.70;92.10
210;DHT22;90;48.810;9.120;2023-12-20T08:57:23;5.60;92.00
210;DHT22;90;48.810;9.120;2023-12-20T08:59:50;5.70;92.20
210;DHT22;90;48.810;9.120;2023-12-20T09:02:17;5.60;92.50
210;DHT22;90;48.810;9.120;2023-12-20T09:04:44;5.60;92.70
210;DHT22;90;48.810;9.120;2023-12-20T09:07:21;5.60;92.50
210;DHT22;90;48.810;9.120;2023-12-20T09:09:48;5.60;92.90
210;DHT22;90;48.810;9.120;2023-12-20T09:12:16;5.60;93.10
210;DHT22;90;48.810;9.120;2023-12-20T09:14:45;6.00;96.80
210;DHT22;90;48.810;9.120;2023-12-20T09:17:12;6.00;92.60
210;DHT22;90;48.810;9.120;2023-12-20T09:19:39;5.90;91.90
210;DHT22;90;48.810;9.120;2023-12-20T09:22:06;5.80;91.60
210;DHT22;90;48.810;9.120;2023-12-20T09:24:33;5.80;91.30
210;DHT22;90;48.810;9.120;2023-12-20T09:27:00;5.80;91.30
210;DHT22;90;48.810;9.120;2023-12-20T09:29:27;5.80;90.20
210;DHT22;90;48.810;9.120;2023-12-20T09:31:58;5.80;89.30
210;DHT22;90;48.810;9.120;2023-12-20T09:34:25;5.80;87.80
210;DHT22;90;48.810;9.120;2023-12-20T09:36:52;5.80;87.60
210;DHT22;90;48.810;9.120;2023-12-20T09:39:21;5.80;87.50
210;DHT22;90;48.810;9.120;2023-12-20T09:41:59;5.90;87.60
210;DHT22;90;48.810;9.120;2023-12-20T09:44:26;5.90;87.10
210;DHT22;90;48.810;9.120;2023-12-20T09:46:55;6.00;85.90
210;DHT22;90;48.810;9.120;2023-12-20T09:49:23;6.00;86.20
210;DHT22;90;48.810;9.120;2023-12-20T09:51:57;6.10;85.70
210;DHT22;90;48.810;9.120;2023-12-20T09:54:26;6.00;84.10
210;DHT22;90;48.810;9.120;2023-12-20T09:56:53;6.10;84.50
210;DHT22;90;48.810;9.120;2023-12-20T09:59:20;6.20;83.60
210;DHT22;90;48.810;9.120;2023-12-20T10:01:48;6.30;83.50
210;DHT22;90;48.810;9.120;2023-12-20T10:04:15;6.30;83.00
210;DHT22;90;48.810;9.120;2023-12-20T10:06:44;6.30;83.30
210;DHT22;90;48.810;9.120;2023-12-20T10:09:11;6.40;84.00
210;DHT22;90;48.810;9.120;2023-12-20T10:11:39;6.40;82.70
210;DHT22;90;48.810;9.120;2023-12-20T10:14:07;6.50;81.70
210;DHT22;90;48.810;9.120;2023-12-20T10:16:34;6.40;81.00
210;DHT22;90;48.810;9.120;2023-12-20T10:19:00;6.40;81.20
210;DHT22;90;48.810;9.120;2023-12-20T10:21:27;6.30;81.50
210;DHT22;90;48.810;9.120;2023-12-20T10:23:57;6.30;80.80
210;DHT22;90;48.810;9.120;2023-12-20T10:26:25;6.20;81.30
210;DHT22;90;48.810;9.120;2023-12-20T10:28:54;6.20;82.00
210;DHT22;90;48.810;9.120;2023-12-20T10:31:28;6.20;82.30
210;DHT22;90;48.810;9.120;2023-12-20T10:33:57;6.20;82.90
210;DHT22;90;48.810;9.120;2023-12-20T10:36:25;6.20;82.60
210;DHT22;90;48.810;9.120;2023-12-20T10:38:53;6.20;83.40
210;DHT22;90;48.810;9.120;2023-12-20T10:41:24;6.20;83.30
210;DHT22;90;48.810;9.120;2023-12-20T10:43:51;6.10;83.50
210;DHT22;90;48.810;9.120;2023-12-20T10:46:19;6.00;84.20
210;DHT22;90;48.810;9.120;2023-12-20T10:48:47;6.00;83.80
210;DHT22;90;48.810;9.120;2023-12-20T10:51:17;6.00;83.60
210;DHT22;90;48.810;9.120;2023-12-20T10:53:46;6.00;83.20
210;DHT22;90;48.810;9.120;2023-12-20T10:56:15;6.00;82.80
210;DHT22;90;48.810;9.120;2023-12-20T10:58:45;6.00;83.30
210;DHT22;90;48.810;9.120;2023-12-20T11:01:13;6.00;83.10
210;DHT22;90;48.810;9.120;2023-12-20T11:03:44;6.10;83.30
210;DHT22;90;48.810;9.120;2023-12-20T11:06:22;6.10;83.60
210;DHT22;90;48.810;9.120;2023-12-20T11:08:55;6.20;82.10
210;DHT22;90;48.810;9.120;2023-12-20T11:11:40;6.20;81.60
210;DHT22;90;48.810;9.120;2023-12-20T11:14:17;6.20;82.10
210;DHT22;90;48.810;9.120;2023-12-20T11:16:45;6.20;81.30
210;DHT22;90;48.810;9.120;2023-12-20T11:19:12;6.10;81.70
210;DHT22;90;48.810;9.120;2023-12-20T11:21:40;6.00;81.50
210;DHT22;90;48.810;9.120;2023-12-20T11:24:07;6.00;81.80
210;DHT22;90;48.810;9.120;2023-12-20T11:26:34;6.00;81.60
210;DHT22;90;48.810;9.120;2023-12-20T11:29:33;5.90;81.60
210;DHT22;90;48.810;9.120;2023-12-20T11:32:01;5.90;81.40
210;DHT22;90;48.810;9.120;2023-12-20T11:34:28;5.90;81.20
210;DHT22;90;48.810;9.120;2023-12-20T11:36:58;5.90;80.70
210;DHT22;90;48.810;9.120;2023-12-20T11:39:26;6.00;81.00
210;DHT22;90;48.810;9.120;2023-12-20T11:41:54;6.00;82.20
210;DHT22;90;48.810;9.120;2023-12-20T11:44:21;6.10;82.30
210;DHT22;90;48.810;9.120;2023-12-20T11:46:50;6.10;81.30
210;DHT22;90;48.810;9.120;2023-12-20T11:49:16;6.10;80.60
210;DHT22;90;48.810;9.120;2023-12-20T11:51:44;6.00;79.40
210;DHT22;90;48.810;9.120;2023-12-20T11:54:10;6.00;79.30
210;DHT22;90;48.810;9.120;2023-12-20T11:56:37;6.00;79.50
210;DHT22;90;48.810;9.120;2023-12-20T11:59:04;6.00;79.90
210;DHT22;90;48.810;9.120;2023-12-20T12:01:31;6.00;80.00
210;DHT22;90;48.810;9.120;2023-12-20T12:04:06;6.00;79.40
210;DHT22;90;48.810;9.120;2023-12-20T12:06:33;6.00;80.20
210;DHT22;90;48.810;9.120;2023-12-20T12:09:00;6.00;79.50
210;DHT22;90;48.810;9.120;2023-12-20T12:11:29;6.10;79.70
210;DHT22;90;48.810;9.120;2023-12-20T12:13:56;6.10;79.30
210;DHT22;90;48.810;9.120;2023-12-20T12:16:23;6.20;79.00
210;DHT22;90;48.810;9.120;2023-12-20T12:18:55;6.20;79.10
210;DHT22;90;48.810;9.120;2023-12-20T12:21:24;6.30;78.50
210;DHT22;90;48.810;9.120;2023-12-20T12:23:51;6.30;78.70
210;DHT22;90;48.810;9.120;2023-12-20T12:26:18;6.30;78.30
210;DHT22;90;48.810;9.120;2023-12-20T12:28:45;6.40;78.80
210;DHT22;90;48.810;9.120;2023-12-20T12:31:15;6.40;78.50
210;DHT22;90;48.810;9.120;2023-12-20T12:33:42;6.50;78.10
210;DHT22;90;48.810;9.120;2023-12-20T12:36:09;6.40;77.70
210;DHT22;90;48.810;9.120;2023-12-20T12:38:38;6.40;77.30
210;DHT22;90;48.810;9.120;2023-12-20T12:41:05;6.40;77.40
210;DHT22;90;48.810;9.120;2023-12-20T12:43:32;6.40;77.30
210;DHT22;90;48.810;9.120;2023-12-20T12:46:00;6.50;77.40
210;DHT22;90;48.810;9.120;2023-12-20T12:48:27;6.50;77.50
210;DHT22;90;48.810;9.120;2023-12-20T12:50:54;6.50;77.40
210;DHT22;90;48.810;9.120;2023-12-20T12:53:24;6.50;77.50
210;DHT22;90;48.810;9.120;2023-12-20T12:55:52;6.40;78.10
210;DHT22;90;48.810;9.120;2023-12-20T12:58:20;6.40;78.50
210;DHT22;90;48.810;9.120;2023-12-20T13:00:47;6.40;78.60
210;DHT22;90;48.810;9.120;2023-12-20T13:03:14;6.40;78.50
210;DHT22;90;48.810;9.120;2023-12-20T13:05:41;6.40;78.40
210;DHT22;90;48.810;9.120;2023-12-20T13:08:08;6.40;78.40
210;DHT22;90;48.810;9.120;2023-12-20T13:10:37;6.30;78.50
210;DHT22;90;48.810;9.120;2023-12-20T13:13:05;6.30;77.70
210;DHT22;90;48.810;9.120;2023-12-20T13:15:32;6.30;77.90
210;DHT22;90;48.810;9.120;2023-12-20T13:17:58;6.30;77.60
210;DHT22;90;48.810;9.120;2023-12-20T13:20:26;6.30;78.00
210;DHT22;90;48.810;9.120;2023-12-20T13:22:53;6.40;78.00
210;DHT22;90;48.810;9.120;2023-12-20T13:25:19;6.50;77.50
210;DHT22;90;48.810;9.120;2023-12-20T13:27:46;6.70;77.00
210;DHT22;90;48.810;9.120;2023-12-20T13:30:15;6.80;75.60
210;DHT22;90;48.810;9.120;2023-12-20T13:32:42;6.90;75.40
210;DHT22;90;48.810;9.120;2023-12-20T13:35:12;7.00;75.40
210;DHT22;90;48.810;9.120;2023-12-20T13:37:39;7.10;75.20
210;DHT22;90;48.810;9.120;2023-12-20T13:40:07;7.00;74.90
210;DHT22;90;48.810;9.120;2023-12-20T13:42:34;6.80;75.40
210;DHT22;90;48.810;9.120;2023-12-20T13:45:01;6.60;76.20
210;DHT22;90;48.810;9.120;2023-12-20T13:47:32;6.50;76.60
210;DHT22;90;48.810;9.120;2023-12-20T13:49:59;6.40;77.40
210;DHT22;90;48.810;9.120;2023-12-20T13:52:25;6.40;78.10
210;DHT22;90;48.810;9.120;2023-12-20T13:54:52;6.30;78.50
210;DHT22;90;48.810;9.120;2023-12-20T13:57:19;6.30;79.10
210;DHT22;90;48.810;9.120;2023-12-20T13:59:45;6.30;79.00
210;DHT22;90;48.810;9.120;2023-12-20T14:02:12;6.30;78.70
210;DHT22;90;48.810;9.120;2023-12-20T14:04:40;6.20;79.30
210;DHT22;90;48.810;9.120;2023-12-20T14:07:07;6.20;79.80
210;DHT22;90;48.810;9.120;2023-12-20T14:09:35;6.20;79.70
210;DHT22;90;48.810;9.120;2023-12-20T14:12:02;6.30;79.60
210;DHT22;90;48.810;9.120;2023-12-20T14:14:29;6.20;79.70
210;DHT22;90;48.810;9.120;2023-12-20T14:16:56;6.20;80.10
210;DHT22;90;48.810;9.120;2023-12-20T14:19:23;6.10;80.30
210;DHT22;90;48.810;9.120;2023-12-20T14:21:51;6.10;80.60
210;DHT22;90;48.810;9.120;2023-12-20T14:24:17;6.20;80.80
210;DHT22;90;48.810;9.120;2023-12-20T14:26:44;6.20;81.00
210;DHT22;90;48.810;9.120;2023-12-20T14:29:11;6.20;81.40
210;DHT22;90;48.810;9.120;2023-12-20T14:31:37;6.10;81.40
210;DHT22;90;48.810;9.120;2023-12-20T14:34:06;6.10;82.20
210;DHT22;90;48.810;9.120;2023-12-20T14:36:34;6.20;82.10
210;DHT22;90;48.810;9.120;2023-12-20T14:39:02;6.10;82.50
210;DHT22;90;48.810;9.120;2023-12-20T14:41:29;6.10;82.50
210;DHT22;90;48.810;9.120;2023-12-20T14:43:56;6.20;82.40
210;DHT22;90;48.810;9.120;2023-12-20T14:46:25;6.10;82.80
210;DHT22;90;48.810;9.120;2023-12-20T14:48:51;6.30;86.60
210;DHT22;90;48.810;9.120;2023-12-20T14:51:19;6.30;83.40
210;DHT22;90;48.810;9.120;2023-12-20T14:53:45;6.10;83.10
210;DHT22;90;48.810;9.120;2023-12-20T14:56:14;6.10;83.10
210;DHT22;90;48.810;9.120;2023-12-20T14:58:41;6.00;84.00
210;DHT22;90;48.810;9.120;2023-12-20T15:01:08;6.00;84.30
210;DHT22;90;48.810;9.120;2023-12-20T15:03:35;6.00;84.20
210;DHT22;90;48.810;9.120;2023-12-20T15:06:02;6.10;84.00
210;DHT22;90;48.810;9.120;2023-12-20T15:08:28;6.00;83.70
210;DHT22;90;48.810;9.120;2023-12-20T15:10:56;6.10;83.30
210;DHT22;90;48.810;9.120;2023-12-20T15:13:24;6.00;83.70
210;DHT22;90;48.810;9.120;2023-12-20T15:15:51;6.10;83.70
210;DHT22;90;48.810;9.120;2023-12-20T15:18:18;6.10;83.30
210;DHT22;90;48.810;9.120;2023-12-20T15:20:44;6.00;83.70
210;DHT22;90;48.810;9.120;2023-12-20T15:23:13;6.10;83.60
210;DHT22;90;48.810;9.120;2023-12-20T15:25:40;6.10;83.50
210;DHT22;90;48.810;9.120;2023-12-20T15:28:07;6.10;83.30
210;DHT22;90;48.810;9.120;2023-12-20T15:30:35;6.00;83.40
210;DHT22;90;48.810;9.120;2023-12-20T15:33:02;6.10;83.30
210;DHT22;90;48.810;9.120;2023-12-20T15:35:29;6.10;83.20
210;DHT22;90;48.810;9.120;2023-12-20T15:37:56;6.10;83.20
210;DHT22;90;48.810;9.120;2023-12-20T15:40:23;6.10;83.30
210;DHT22;90;48.810;9.120;2023-12-20T15:42:50;6.20;83.00
210;DHT22;90;48.810;9.120;2023-12-20T15:45:18;6.10;82.90
210;DHT22;90;48.810;9.120;2023-12-20T15:47:46;6.10;82.90
210;DHT22;90;48.810;9.120;2023-12-20T15:50:13;6.10;82.90
210;DHT22;90;48.810;9.120;2023-12-20T15:52:40;6.00;83.50
210;DHT22;90;48.810;9.120;2023-12-20T15:55:08;6.00;84.10
210;DHT22;90;48.810;9.120;2023-12-20T15:57:35;6.10;84.00
210;DHT22;90;48.810;9.120;2023-12-20T16:00:06;6.00;84.60
210;DHT22;90;48.810;9.120;2023-12-20T16:02:33;6.10;84.40
210;DHT22;90;48.810;9.120;2023-12-20T16:05:01;6.00;84.60
210;DHT22;90;48.810;9.120;2023-12-20T16:07:28;5.90;85.00
210;DHT22;90;48.810;9.120;2023-12-20T16:09:55;5.90;85.20
210;DHT22;90;48.810;9.120;2023-12-20T16:12:22;5.90;85.20
210;DHT22;90;48.810;9.120;2023-12-20T16:14:48;5.80;85.50
210;DHT22;90;48.810;9.120;2023-12-20T16:17:15;5.90;85.70
210;DHT22;90;48.810;9.120;2023-12-20T16:19:42;5.90;85.50
210;DHT22;90;48.810;9.120;2023-12-20T16:22:11;5.90;85.70
210;DHT22;90;48.810;9.120;2023-12-20T16:24:38;5.90;85.80
210;DHT22;90;48.810;9.120;2023-12-20T16:27:06;5.90;85.50
210;DHT22;90;48.810;9.120;2023-12-20T16:29:33;5.80;86.00
210;DHT22;90;48.810;9.120;2023-12-20T16:31:59;5.80;86.50
210;DHT22;90;48.810;9.120;2023-12-20T16:34:26;5.80;86.20
210;DHT22;90;48.810;9.120;2023-12-20T16:36:54;5.70;86.40
210;DHT22;90;48.810;9.120;2023-12-20T16:39:22;5.70;86.70
210;DHT22;90;48.810;9.120;2023-12-20T16:41:49;5.70;86.70
210;DHT22;90;48.810;9.120;2023-12-20T16:44:16;5.70;87.00
210;DHT22;90;48.810;9.120;2023-12-20T16:46:43;5.70;87.00
210;DHT22;90;48.810;9.120;2023-12-20T16:49:10;5.70;87.10
210;DHT22;90;48.810;9.120;2023-12-20T16:51:37;5.70;87.20
210;DHT22;90;48.810;9.120;2023-12-20T16:54:06;5.70;87.40
210;DHT22;90;48.810;9.120;2023-12-20T16:56:36;5.60;87.80
210;DHT22;90;48.810;9.120;2023-12-20T16:59:03;5.70;87.80
210;DHT22;90;48.810;9.120;2023-12-20T17:01:30;5.70;87.50
210;DHT22;90;48.810;9.120;2023-12-20T17:03:57;5.70;87.40
210;DHT22;90;48.810;9.120;2023-12-20T17:06:23;5.60;87.80
210;DHT22;90;48.810;9.120;2023-12-20T17:08:52;5.60;87.80
210;DHT22;90;48.810;9.120;2023-12-20T17:11:18;5.60;87.90